createdAt,value
2018-10-03T00:02:23.052Z,13.60
2018-10-03T00:04:51.462Z,13.60
2018-10-03T00:07:19.937Z,13.60
2018-10-03T00:09:48.399Z,13.70
2018-10-03T00:12:16.844Z,13.70
2018-10-03T00:14:45.280Z,13.80
2018-10-03T00:17:13.691Z,13.90
2018-10-03T00:19:42.201Z,14.00
2018-10-03T00:22:10.667Z,14.10
2018-10-03T00:24:39.121Z,14.10
2018-10-03T00:27:07.553Z,14.10
2018-10-03T00:29:36.044Z,14.10
2018-10-03T00:32:04.516Z,14.00
2018-10-03T00:34:33.029Z,14.00
2018-10-03T00:37:01.483Z,14.00
2018-10-03T00:39:29.922Z,13.90
2018-10-03T00:41:58.358Z,13.90
2018-10-03T00:44:26.780Z,13.90
2018-10-03T00:46:55.246Z,13.90
2018-10-03T00:49:23.733Z,14.00
2018-10-03T00:51:52.199Z,14.10
2018-10-03T00:54:20.644Z,14.20
2018-10-03T00:56:49.058Z,14.30
2018-10-03T00:59:17.516Z,14.40
2018-10-03T01:01:45.968Z,14.50
2018-10-03T01:04:14.462Z,14.60
2018-10-03T01:06:42.902Z,14.60
2018-10-03T01:09:11.362Z,14.60
2018-10-03T01:11:39.810Z,14.60
2018-10-03T01:14:08.223Z,14.60
2018-10-03T01:16:36.666Z,14.50
2018-10-03T01:19:05.120Z,14.50
2018-10-03T01:21:33.560Z,14.60
2018-10-03T01:24:02.028Z,14.50
2018-10-03T01:26:30.481Z,14.60
2018-10-03T01:28:58.922Z,14.60
2018-10-03T01:31:27.377Z,14.60
2018-10-03T01:33:55.800Z,14.70
2018-10-03T01:36:24.228Z,14.70
2018-10-03T01:38:52.673Z,14.70
2018-10-03T01:41:21.123Z,14.80
2018-10-03T01:43:49.577Z,14.70
2018-10-03T01:46:18.021Z,14.80
2018-10-03T01:48:46.462Z,14.80
2018-10-03T01:51:14.917Z,14.80
2018-10-03T01:53:43.371Z,14.80
2018-10-03T01:56:11.802Z,14.80
2018-10-03T01:58:40.260Z,14.80
2018-10-03T02:01:08.753Z,14.80
2018-10-03T02:03:37.167Z,14.70
2018-10-03T02:06:05.617Z,14.70
2018-10-03T02:08:34.055Z,14.70
2018-10-03T02:11:02.485Z,14.70
2018-10-03T02:13:30.919Z,14.70
2018-10-03T02:15:59.397Z,14.60
2018-10-03T02:18:27.847Z,14.60
2018-10-03T02:20:56.323Z,14.60
2018-10-03T02:23:24.777Z,14.60
2018-10-03T02:25:53.200Z,14.50
2018-10-03T02:28:21.882Z,14.50
2018-10-03T02:30:51.021Z,14.50
2018-10-03T02:33:19.450Z,14.40
2018-10-03T02:35:47.891Z,14.40
2018-10-03T02:38:16.348Z,14.40
2018-10-03T02:40:44.797Z,14.40
2018-10-03T02:43:13.253Z,14.30
2018-10-03T02:45:41.738Z,14.30
2018-10-03T02:48:10.182Z,14.30
2018-10-03T02:50:38.626Z,14.30
2018-10-03T02:53:07.193Z,14.30
2018-10-03T02:55:35.643Z,14.30
2018-10-03T02:58:04.171Z,14.20
2018-10-03T03:00:32.556Z,14.20
2018-10-03T03:03:00.990Z,14.10
2018-10-03T03:05:29.434Z,14.00
2018-10-03T03:07:57.938Z,13.90
2018-10-03T03:10:26.415Z,13.80
2018-10-03T03:12:54.934Z,13.80
2018-10-03T03:15:23.394Z,13.90
2018-10-03T03:17:51.856Z,13.80
2018-10-03T03:20:20.302Z,13.70
2018-10-03T03:22:48.718Z,13.50
2018-10-03T03:25:17.168Z,13.40
2018-10-03T03:27:45.583Z,13.40
2018-10-03T03:30:14.062Z,13.40
2018-10-03T03:32:42.504Z,13.50
2018-10-03T03:35:10.972Z,13.50
2018-10-03T03:37:39.457Z,13.60
2018-10-03T03:40:07.903Z,13.60
2018-10-03T03:42:36.347Z,13.70
2018-10-03T03:45:04.793Z,13.70
2018-10-03T03:47:33.219Z,13.70
2018-10-03T03:50:01.674Z,13.70
2018-10-03T03:52:30.110Z,13.70
2018-10-03T03:54:58.543Z,13.70
2018-10-03T03:57:27.060Z,13.70
2018-10-03T03:59:55.529Z,13.60
2018-10-03T04:02:24.010Z,13.60
2018-10-03T04:04:52.417Z,13.60
2018-10-03T04:07:20.930Z,13.60
2018-10-03T04:09:49.371Z,13.60
2018-10-03T04:12:17.843Z,13.60
2018-10-03T04:14:46.281Z,13.60
2018-10-03T04:17:14.813Z,13.60
2018-10-03T04:19:43.296Z,13.60
2018-10-03T04:22:11.715Z,13.50
2018-10-03T04:24:40.397Z,13.50
2018-10-03T04:27:08.839Z,13.50
2018-10-03T04:29:37.315Z,13.50
2018-10-03T04:32:05.771Z,13.40
2018-10-03T04:34:35.329Z,13.30
2018-10-03T04:37:03.809Z,13.20
2018-10-03T04:39:32.313Z,13.10
2018-10-03T04:42:00.753Z,12.90
2018-10-03T04:44:29.248Z,12.80
2018-10-03T04:46:57.692Z,12.70
2018-10-03T04:49:26.150Z,12.70
2018-10-03T04:51:54.639Z,12.60
2018-10-03T04:54:23.072Z,12.50
2018-10-03T04:56:51.504Z,12.40
2018-10-03T04:59:20.010Z,12.30
2018-10-03T05:01:48.510Z,12.30
2018-10-03T05:04:16.954Z,12.20
2018-10-03T05:06:45.408Z,12.20
2018-10-03T05:09:13.929Z,12.20
2018-10-03T05:11:43.097Z,12.20
2018-10-03T05:14:11.570Z,12.10
2018-10-03T05:16:40.090Z,12.00
2018-10-03T05:19:08.698Z,11.90
2018-10-03T05:21:39.487Z,11.90
2018-10-03T05:24:08.330Z,11.80
2018-10-03T05:26:36.912Z,11.70
2018-10-03T05:29:05.428Z,11.70
2018-10-03T05:31:33.871Z,11.70
2018-10-03T05:34:02.371Z,11.70
2018-10-03T05:36:30.950Z,11.70
2018-10-03T05:39:01.227Z,11.80
2018-10-03T05:41:29.807Z,11.90
2018-10-03T05:43:58.227Z,12.00
2018-10-03T05:46:26.739Z,12.10
2018-10-03T05:48:55.259Z,12.10
2018-10-03T05:51:23.722Z,12.20
2018-10-03T05:53:52.149Z,12.20
2018-10-03T05:56:20.710Z,12.30
2018-10-03T05:58:49.171Z,12.40
2018-10-03T06:01:17.638Z,12.40
2018-10-03T06:03:46.065Z,12.40
2018-10-03T06:06:14.535Z,12.40
2018-10-03T06:08:43.048Z,12.40
2018-10-03T06:11:11.504Z,12.40
2018-10-03T06:13:39.969Z,12.40
2018-10-03T06:16:08.481Z,12.40
2018-10-03T06:18:37.059Z,12.50
2018-10-03T06:21:05.539Z,12.50
2018-10-03T06:23:33.983Z,12.50
2018-10-03T06:26:02.434Z,12.50
2018-10-03T06:28:30.887Z,12.40
2018-10-03T06:30:59.356Z,12.40
2018-10-03T06:33:27.844Z,12.40
2018-10-03T06:35:56.268Z,12.40
2018-10-03T06:38:24.714Z,12.30
2018-10-03T06:40:53.162Z,12.30
2018-10-03T06:43:21.654Z,12.30
2018-10-03T06:45:50.224Z,12.40
2018-10-03T06:48:18.674Z,12.40
2018-10-03T06:50:47.180Z,12.50
2018-10-03T06:53:15.684Z,12.50
2018-10-03T06:55:44.107Z,12.60
2018-10-03T06:58:12.519Z,12.60
2018-10-03T07:00:40.966Z,12.80
2018-10-03T07:03:09.454Z,12.80
2018-10-03T07:05:37.948Z,12.90
2018-10-03T07:08:06.485Z,13.00
2018-10-03T07:10:34.962Z,13.10
2018-10-03T07:13:03.567Z,13.20
2018-10-03T07:15:31.957Z,13.30
2018-10-03T07:18:00.457Z,13.40
2018-10-03T07:20:28.921Z,13.50
2018-10-03T07:22:57.365Z,13.50
2018-10-03T07:25:25.863Z,13.50
2018-10-03T07:27:54.339Z,13.60
2018-10-03T07:30:22.817Z,13.70
2018-10-03T07:32:51.307Z,13.80
2018-10-03T07:35:19.783Z,13.90
2018-10-03T07:37:48.284Z,14.00
2018-10-03T07:40:16.809Z,14.10
2018-10-03T07:42:45.274Z,14.20
2018-10-03T07:45:13.727Z,14.40
2018-10-03T07:47:42.175Z,14.50
2018-10-03T07:50:10.655Z,14.60
2018-10-03T07:52:39.171Z,14.80
2018-10-03T07:55:07.657Z,14.90
2018-10-03T07:57:36.132Z,15.10
2018-10-03T08:00:05.438Z,15.20
2018-10-03T08:02:33.903Z,15.40
2018-10-03T08:05:02.358Z,15.50
2018-10-03T08:07:30.824Z,15.70
2018-10-03T08:09:59.353Z,16.00
2018-10-03T08:12:27.769Z,16.60
2018-10-03T08:14:56.242Z,17.40
2018-10-03T08:17:24.728Z,18.00
2018-10-03T08:19:53.194Z,18.40
2018-10-03T08:22:21.647Z,18.80
2018-10-03T08:24:50.125Z,19.30
2018-10-03T08:27:18.599Z,19.60
2018-10-03T08:29:47.060Z,19.60
2018-10-03T08:32:15.561Z,20.00
2018-10-03T08:34:44.014Z,20.50
2018-10-03T08:37:12.449Z,20.90
2018-10-03T08:39:40.902Z,21.30
2018-10-03T08:42:09.389Z,21.60
2018-10-03T08:44:37.821Z,21.50
2018-10-03T08:47:06.614Z,21.50
2018-10-03T08:49:35.064Z,21.60
2018-10-03T08:52:03.535Z,22.00
2018-10-03T08:54:32.018Z,22.30
2018-10-03T08:57:00.524Z,23.00
2018-10-03T08:59:29.014Z,23.20
2018-10-03T09:01:57.496Z,23.40
2018-10-03T09:04:26.098Z,23.30
2018-10-03T09:06:54.556Z,23.70
2018-10-03T09:09:23.018Z,23.40
2018-10-03T09:11:51.464Z,22.50
2018-10-03T09:14:19.923Z,22.00
2018-10-03T09:16:48.393Z,22.50
2018-10-03T09:19:16.833Z,22.90
2018-10-03T09:21:45.444Z,24.10
2018-10-03T09:24:13.917Z,24.50
2018-10-03T09:26:42.358Z,25.00
2018-10-03T09:29:10.806Z,24.20
2018-10-03T09:31:39.311Z,23.10
2018-10-03T09:34:07.783Z,23.10
2018-10-03T09:36:36.247Z,23.80
2018-10-03T09:39:07.639Z,24.40
2018-10-03T09:41:36.155Z,24.30
2018-10-03T09:44:04.683Z,22.90
2018-10-03T09:46:33.210Z,22.50
2018-10-03T09:49:01.691Z,23.00
2018-10-03T09:51:30.210Z,23.10
2018-10-03T09:53:58.726Z,23.40
2018-10-03T09:56:27.272Z,24.60
2018-10-03T09:58:55.707Z,24.80
2018-10-03T10:01:30.144Z,23.50
2018-10-03T10:03:59.752Z,23.80
2018-10-03T10:06:28.684Z,24.70
2018-10-03T10:08:57.110Z,25.90
2018-10-03T10:11:25.821Z,26.40
2018-10-03T10:13:54.200Z,26.30
2018-10-03T10:16:22.686Z,26.20
2018-10-03T10:18:51.142Z,26.30
2018-10-03T10:21:19.591Z,25.70
2018-10-03T10:23:48.030Z,26.10
2018-10-03T10:26:16.480Z,26.70
2018-10-03T10:28:44.958Z,26.90
2018-10-03T10:31:13.413Z,27.50
2018-10-03T10:33:41.862Z,26.00
2018-10-03T10:36:10.294Z,24.50
2018-10-03T10:38:38.754Z,24.40
2018-10-03T10:41:07.324Z,24.50
2018-10-03T10:43:35.721Z,25.10
2018-10-03T10:46:04.198Z,25.90
2018-10-03T10:48:32.669Z,25.50
2018-10-03T10:51:01.129Z,25.70
2018-10-03T10:53:29.580Z,26.60
2018-10-03T10:55:58.026Z,26.60
2018-10-03T10:58:26.489Z,27.50
2018-10-03T11:00:54.977Z,27.70
2018-10-03T11:03:23.415Z,27.80
2018-10-03T11:05:51.913Z,28.10
2018-10-03T11:08:20.378Z,28.00
2018-10-03T11:10:48.837Z,27.90
2018-10-03T11:13:17.297Z,27.80
2018-10-03T11:15:45.781Z,25.90
2018-10-03T11:18:14.272Z,24.40
2018-10-03T11:20:42.755Z,23.70
2018-10-03T11:23:11.185Z,23.40
2018-10-03T11:25:39.944Z,23.40
2018-10-03T11:28:08.430Z,24.30
2018-10-03T11:30:36.895Z,25.40
2018-10-03T11:33:05.353Z,26.60
2018-10-03T11:35:33.843Z,26.60
2018-10-03T11:38:02.305Z,24.30
2018-10-03T11:40:30.814Z,24.40
2018-10-03T11:42:59.275Z,25.70
2018-10-03T11:45:27.755Z,27.50
2018-10-03T11:47:56.246Z,28.60
2018-10-03T11:50:24.764Z,28.90
2018-10-03T11:52:53.246Z,28.60
2018-10-03T11:55:21.734Z,28.30
2018-10-03T11:57:50.187Z,28.70
2018-10-03T12:00:18.631Z,29.00
2018-10-03T12:02:47.145Z,30.00
2018-10-03T12:05:15.579Z,29.90
2018-10-03T12:07:44.058Z,29.70
2018-10-03T12:10:12.960Z,29.30
2018-10-03T12:12:41.424Z,28.80
2018-10-03T12:15:12.478Z,28.30
2018-10-03T12:17:40.932Z,28.80
2018-10-03T12:20:09.379Z,28.70
2018-10-03T12:22:37.895Z,28.30
2018-10-03T12:25:06.484Z,28.80
2018-10-03T12:27:34.921Z,28.90
2018-10-03T12:30:03.488Z,28.40
2018-10-03T12:32:31.942Z,28.30
2018-10-03T12:35:00.433Z,28.80
2018-10-03T12:37:28.905Z,28.40
2018-10-03T12:39:57.399Z,29.10
2018-10-03T12:42:25.867Z,29.30
2018-10-03T12:44:54.336Z,28.90
2018-10-03T12:47:22.807Z,29.50
2018-10-03T12:49:51.283Z,28.80
2018-10-03T12:52:19.758Z,28.00
2018-10-03T12:54:48.314Z,26.80
2018-10-03T12:57:16.755Z,26.20
2018-10-03T12:59:45.218Z,25.60
2018-10-03T13:02:13.652Z,24.60
2018-10-03T13:04:42.073Z,23.40
2018-10-03T13:07:10.531Z,22.30
2018-10-03T13:09:38.991Z,21.70
2018-10-03T13:12:07.539Z,21.60
2018-10-03T13:14:36.007Z,21.40
2018-10-03T13:17:04.455Z,20.90
2018-10-03T13:19:32.919Z,21.00
2018-10-03T13:22:01.374Z,22.30
2018-10-03T13:24:29.867Z,22.40
2018-10-03T13:26:58.301Z,22.10
2018-10-03T13:29:26.757Z,21.50
2018-10-03T13:31:55.186Z,21.00
2018-10-03T13:34:23.655Z,20.60
2018-10-03T13:36:52.109Z,20.90
2018-10-03T13:39:20.593Z,21.50
2018-10-03T13:41:49.083Z,21.70
2018-10-03T13:44:17.552Z,21.60
2018-10-03T13:46:46.088Z,21.10
2018-10-03T13:49:14.807Z,20.70
2018-10-03T13:51:43.296Z,20.70
2018-10-03T13:54:18.393Z,20.50
2018-10-03T13:56:46.844Z,20.20
2018-10-03T13:59:15.326Z,20.10
2018-10-03T14:01:43.764Z,19.90
2018-10-03T14:04:12.236Z,20.00
2018-10-03T14:06:40.676Z,20.20
2018-10-03T14:09:10.246Z,19.80
2018-10-03T14:11:38.752Z,19.30
2018-10-03T14:14:07.206Z,19.30
2018-10-03T14:16:35.669Z,19.30
2018-10-03T14:19:04.200Z,19.30
2018-10-03T14:21:32.661Z,19.00
2018-10-03T14:24:01.102Z,18.70
2018-10-03T14:26:29.555Z,18.40
2018-10-03T14:28:58.067Z,18.40
2018-10-03T14:31:26.602Z,18.50
2018-10-03T14:33:55.100Z,18.40
2018-10-03T14:36:23.587Z,18.30
2018-10-03T14:38:52.054Z,18.20
2018-10-03T14:41:20.548Z,18.20
2018-10-03T14:43:49.021Z,18.20
2018-10-03T14:46:17.502Z,18.10
2018-10-03T14:48:46.054Z,18.00
2018-10-03T14:51:14.557Z,17.90
2018-10-03T14:53:43.095Z,17.90
2018-10-03T14:56:11.545Z,17.80
2018-10-03T14:58:40.106Z,17.50
2018-10-03T15:01:08.575Z,17.50
2018-10-03T15:03:37.023Z,17.30
2018-10-03T15:06:05.684Z,17.30
2018-10-03T15:08:34.485Z,17.40
2018-10-03T15:11:02.996Z,17.50
2018-10-03T15:13:31.419Z,17.50
2018-10-03T15:15:59.903Z,17.50
2018-10-03T15:18:28.367Z,17.50
2018-10-03T15:20:56.825Z,17.70
2018-10-03T15:23:25.277Z,17.60
2018-10-03T15:25:53.771Z,17.60
2018-10-03T15:28:22.276Z,17.50
2018-10-03T15:30:50.785Z,17.50
2018-10-03T15:33:19.290Z,17.50
2018-10-03T15:35:47.796Z,17.50
2018-10-03T15:38:16.540Z,17.40
2018-10-03T15:40:45.411Z,17.40
2018-10-03T15:43:14.245Z,17.30
2018-10-03T15:45:43.313Z,17.10
2018-10-03T15:48:14.237Z,16.90
2018-10-03T15:50:42.880Z,16.80
2018-10-03T15:53:11.464Z,16.70
2018-10-03T15:55:40.012Z,16.70
2018-10-03T15:58:08.626Z,16.70
2018-10-03T16:00:37.278Z,16.80
2018-10-03T16:03:05.835Z,16.90
2018-10-03T16:05:34.421Z,17.00
2018-10-03T16:08:02.946Z,17.10
2018-10-03T16:10:31.493Z,17.20
2018-10-03T16:12:59.962Z,17.30
2018-10-03T16:15:28.601Z,17.20
2018-10-03T16:17:57.094Z,17.10
2018-10-03T16:20:25.579Z,17.10
2018-10-03T16:22:54.075Z,17.10
2018-10-03T16:25:22.615Z,17.00
2018-10-03T16:27:51.277Z,17.00
2018-10-03T16:30:20.048Z,17.00
2018-10-03T16:32:48.694Z,16.90
2018-10-03T16:35:17.492Z,16.80
2018-10-03T16:37:45.998Z,16.70
2018-10-03T16:40:14.626Z,16.70
2018-10-03T16:42:43.186Z,16.60
2018-10-03T16:45:11.789Z,16.50
2018-10-03T16:47:40.454Z,16.40
2018-10-03T16:50:09.053Z,16.40
2018-10-03T16:52:37.567Z,16.30
2018-10-03T16:55:06.249Z,16.20
2018-10-03T16:57:35.333Z,16.20
2018-10-03T17:00:04.083Z,16.20
2018-10-03T17:02:32.877Z,16.10
2018-10-03T17:05:01.380Z,16.10
2018-10-03T17:07:29.883Z,16.10
2018-10-03T17:09:58.462Z,16.00
2018-10-03T17:12:27.000Z,16.00
2018-10-03T17:14:55.494Z,16.00
2018-10-03T17:17:24.116Z,16.10
2018-10-03T17:19:52.546Z,16.10
2018-10-03T17:22:21.018Z,16.10
2018-10-03T17:24:49.470Z,16.10
2018-10-03T17:27:17.978Z,16.10
2018-10-03T17:29:46.462Z,16.10
2018-10-03T17:32:14.922Z,16.00
2018-10-03T17:34:43.369Z,16.00
2018-10-03T17:37:11.910Z,16.00
2018-10-03T17:39:40.362Z,16.00
2018-10-03T17:42:08.826Z,16.00
2018-10-03T17:44:37.331Z,16.00
2018-10-03T17:47:05.908Z,15.90
2018-10-03T17:49:34.410Z,15.90
2018-10-03T17:52:03.003Z,15.80
2018-10-03T17:54:31.517Z,15.80
2018-10-03T17:57:00.065Z,15.80
2018-10-03T17:59:29.367Z,15.80
2018-10-03T18:01:59.774Z,15.80
2018-10-03T18:04:28.339Z,15.80
2018-10-03T18:06:56.813Z,15.80
2018-10-03T18:09:25.344Z,15.80
2018-10-03T18:11:53.881Z,15.80
2018-10-03T18:14:22.388Z,15.90
2018-10-03T18:16:50.850Z,15.80
2018-10-03T18:19:19.357Z,15.80
2018-10-03T18:21:47.866Z,15.80
2018-10-03T18:24:16.321Z,15.80
2018-10-03T18:26:44.782Z,15.80
2018-10-03T18:29:13.293Z,15.80
2018-10-03T18:31:41.773Z,15.70
2018-10-03T18:34:10.292Z,15.70
2018-10-03T18:36:38.734Z,15.70
2018-10-03T18:39:08.632Z,15.70
2018-10-03T18:41:37.235Z,15.60
2018-10-03T18:44:05.872Z,15.60
2018-10-03T18:46:34.439Z,15.60
2018-10-03T18:49:02.944Z,15.60
2018-10-03T18:51:31.425Z,15.60
2018-10-03T18:53:59.879Z,15.60
2018-10-03T18:56:28.459Z,15.60
2018-10-03T18:58:57.081Z,15.60
2018-10-03T19:01:25.567Z,15.60
2018-10-03T19:03:54.019Z,15.60
2018-10-03T19:06:22.487Z,15.60
2018-10-03T19:08:50.939Z,15.60
2018-10-03T19:11:19.462Z,15.60
2018-10-03T19:13:47.954Z,15.50
2018-10-03T19:16:16.410Z,15.50
2018-10-03T19:18:44.898Z,15.60
2018-10-03T19:21:13.370Z,15.60
2018-10-03T19:23:41.879Z,15.50
2018-10-03T19:26:10.468Z,15.50
2018-10-03T19:28:38.947Z,15.50
2018-10-03T19:31:07.887Z,15.50
2018-10-03T19:33:36.349Z,15.40
2018-10-03T19:36:04.854Z,15.40
2018-10-03T19:38:33.449Z,15.40
2018-10-03T19:41:01.926Z,15.40
2018-10-03T19:43:30.433Z,15.40
2018-10-03T19:45:58.874Z,15.40
2018-10-03T19:48:27.449Z,15.40
2018-10-03T19:50:55.919Z,15.40
2018-10-03T19:53:29.804Z,15.40
2018-10-03T19:55:58.283Z,15.40
2018-10-03T19:58:26.772Z,15.40
2018-10-03T20:00:55.291Z,15.40
2018-10-03T20:03:23.799Z,15.50
2018-10-03T20:05:52.281Z,15.50
2018-10-03T20:08:21.100Z,15.50
2018-10-03T20:10:50.039Z,15.50
2018-10-03T20:13:18.508Z,15.50
2018-10-03T20:15:46.977Z,15.50
2018-10-03T20:18:15.427Z,15.50
2018-10-03T20:20:43.898Z,15.50
2018-10-03T20:23:12.385Z,15.50
2018-10-03T20:25:40.819Z,15.50
2018-10-03T20:28:10.651Z,15.50
2018-10-03T20:30:39.153Z,15.40
2018-10-03T20:33:07.631Z,15.40
2018-10-03T20:35:36.118Z,15.40
2018-10-03T20:38:04.630Z,15.30
2018-10-03T20:40:33.102Z,15.30
2018-10-03T20:43:01.557Z,15.30
2018-10-03T20:45:29.998Z,15.40
2018-10-03T20:47:58.457Z,15.40
2018-10-03T20:50:26.927Z,15.30
2018-10-03T20:52:55.392Z,15.30
2018-10-03T20:55:23.919Z,15.30
2018-10-03T20:57:52.384Z,15.30
2018-10-03T21:00:20.906Z,15.30
2018-10-03T21:02:49.347Z,15.20
2018-10-03T21:05:17.844Z,15.20
2018-10-03T21:07:46.283Z,15.20
2018-10-03T21:10:14.746Z,15.20
2018-10-03T21:12:43.247Z,15.10
2018-10-03T21:15:11.724Z,15.10
2018-10-03T21:17:40.166Z,15.10
2018-10-03T21:20:08.622Z,15.10
2018-10-03T21:22:37.098Z,15.10
2018-10-03T21:25:05.649Z,15.00
2018-10-03T21:27:34.084Z,15.10
2018-10-03T21:30:02.554Z,15.00
2018-10-03T21:32:31.080Z,14.90
2018-10-03T21:34:59.484Z,14.90
2018-10-03T21:37:27.969Z,14.90
2018-10-03T21:39:56.423Z,14.90
2018-10-03T21:42:24.902Z,14.90
2018-10-03T21:44:53.384Z,14.80
2018-10-03T21:47:21.833Z,14.80
2018-10-03T21:49:50.342Z,14.80
2018-10-03T21:52:18.799Z,14.70
2018-10-03T21:54:47.284Z,14.80
2018-10-03T21:57:15.765Z,14.70
2018-10-03T21:59:44.281Z,14.70
2018-10-03T22:02:12.742Z,14.70
2018-10-03T22:04:41.197Z,14.70
2018-10-03T22:07:09.693Z,14.70
2018-10-03T22:09:38.166Z,14.70
2018-10-03T22:12:06.637Z,14.60
2018-10-03T22:14:35.082Z,14.60
2018-10-03T22:17:03.583Z,14.60
2018-10-03T22:19:32.053Z,14.60
2018-10-03T22:22:00.495Z,14.50
2018-10-03T22:24:28.944Z,14.50
2018-10-03T22:26:57.395Z,14.50
2018-10-03T22:29:25.890Z,14.50
2018-10-03T22:31:54.309Z,14.50
2018-10-03T22:34:22.826Z,14.50
2018-10-03T22:36:51.258Z,14.50
2018-10-03T22:39:19.706Z,14.40
2018-10-03T22:41:48.133Z,14.30
2018-10-03T22:44:16.562Z,14.30
2018-10-03T22:46:45.027Z,14.30
2018-10-03T22:49:13.480Z,14.30
2018-10-03T22:51:42.227Z,14.30
2018-10-03T22:54:10.706Z,14.40
2018-10-03T22:56:39.181Z,14.30
2018-10-03T22:59:07.639Z,14.30
2018-10-03T23:01:36.095Z,14.30
2018-10-03T23:04:04.571Z,14.30
2018-10-03T23:06:33.037Z,14.30
2018-10-03T23:09:01.502Z,14.30
2018-10-03T23:11:29.996Z,14.30
2018-10-03T23:13:58.456Z,14.20
2018-10-03T23:16:26.934Z,14.20
2018-10-03T23:18:55.410Z,14.20
2018-10-03T23:21:23.897Z,14.20
2018-10-03T23:23:52.347Z,14.20
2018-10-03T23:26:20.817Z,14.20
2018-10-03T23:28:49.262Z,14.20
2018-10-03T23:31:17.821Z,14.20
2018-10-03T23:33:46.263Z,14.10
2018-10-03T23:36:14.712Z,14.10
2018-10-03T23:38:43.175Z,14.10
2018-10-03T23:41:11.601Z,14.00
2018-10-03T23:43:40.065Z,14.00
2018-10-03T23:46:08.565Z,14.00
2018-10-03T23:48:37.005Z,14.00
2018-10-03T23:51:05.523Z,13.90
2018-10-03T23:53:33.995Z,13.80
2018-10-03T23:56:02.451Z,13.80
2018-10-03T23:58:30.949Z,13.70
